• Join FlightAware (Why Join?)
  • Login
  • US Flag 
07:01PM EST


 

Airport Tracker/Info


-or-


 

Live Flight TrackerFlight Track Log ✈ JIA2329 ✈ 04-May-2013 ✈ KALB - KPHL

Flight Track Log - Related Links

Times and Time Zones

All times are in EDT time to prevent confusion due to time zone crossing. See the JIA2329 flight status page for this flight to view local times or setup timezone preferences in your user account.

Time Position Orientation Groundspeed Altitude Reporting Facility
EDT Latitude Longitude Course Direction KTS MPH feet Rate Location/Type
05:39AM 42.7236 -73.8081 220° Southwest 172 198 1,500  Level Boston Center
05:40AM 42.6856 -73.8581 224° Southwest 251 289 4,200 2,580 Climbing Boston Center
05:40AM 42.6872 -73.8806 276° West 252 290 5,100 3,420 Climbing Boston Center
05:41AM 42.7333 -74.1436 270° West  Level FlightAware Approximate
05:41AM 42.7006 -73.9797 280° West 258 297 8,500  Level Boston Center
05:42AM 42.7334 -74.2581 270° West  Level FlightAware Approximate
05:42AM 42.6764 -74.0753 251° West 263 303 11,400  Level Boston Center
05:43AM 42.6984 -74.3539 220° Southwest  Level FlightAware Approximate
05:43AM 42.6250 -74.1586 230° Southwest 284 327 13,700  Level Boston Center
05:44AM 42.6336 -74.4269 220° Southwest  Level FlightAware Approximate
05:44AM 42.5628 -74.2725 233° Southwest 330 380 15,600  Level Boston Center
05:45AM 42.5047 -74.3747 232° Southwest 372 428 16,000 180 Climbing Boston Center
05:46AM 42.4358 -74.4994 233° Southwest 385 443 16,000  Level Boston Center
05:47AM 42.3778 -74.6042 233° Southwest 385 443 16,000 -60 Level Boston Center
05:49AM 42.2781 -74.7814 233° Southwest 390 449 15,900 -60 Descending New York Center
05:50AM 42.2139 -74.8981 233° Southwest 390 449 15,900  Level New York Center
05:51AM 42.1333 -74.9964 222° Southwest 390 449 15,900  Level New York Center
05:52AM 42.0433 -75.0717 212° Southwest 385 443 15,900  Level New York Center
05:53AM 41.9531 -75.1467 212° Southwest 390 449 16,000  Climbing New York Center
05:54AM 41.8544 -75.2264 211° Southwest 390 449 16,000  Level New York Center
05:55AM 41.7600 -75.3006 210° Southwest 396 456 16,100  Climbing New York Center
05:56AM 41.6697 -75.3722 211° Southwest 396 456 16,000 -420 Descending New York Center
05:57AM 41.5878 -75.4414 212° Southwest 396 456 15,300 -1,560 Descending New York Center
05:58AM 41.4933 -75.5153 210° Southwest 396 456 13,000 -1,680 Descending New York Center
05:59AM 41.4008 -75.5889 211° Southwest 373 429 12,000 -480 Descending New York Center
06:00AM 41.3167 -75.6575 211° Southwest 373 429 12,100  Climbing New York Center
06:01AM 41.2244 -75.6756 188° South 343 395 12,100  Level New York Center
06:02AM 41.1297 -75.6467 167° South 338 389 12,100  Level New York Center
06:03AM 41.0456 -75.6186 166° South 348 400 12,100  Level New York Center
06:04AM 40.9406 -75.5864 167° South 353 406 12,100 -120 Level New York Center
06:05AM 40.8439 -75.5550 166° South 353 406 11,900 -420 Descending New York Center
06:06AM 40.7514 -75.5264 167° South 353 406 11,300 -660 Descending New York Center
06:07AM 40.6608 -75.4983 167° South 342 394 10,700 -600 Descending New York Center
06:08AM 40.5722 -75.4703 166° South 333 383 10,200 -360 Descending New York Center
06:09AM 40.4878 -75.4456 167° South 327 376 10,000 -120 Descending New York Center
06:10AM 40.4178 -75.4244 167° South 304 350 10,000 -180 Level New York Center
06:11AM 40.3369 -75.4108 173° South 296 341 9,700 -540 Descending New York Center
06:12AM 40.2472 -75.4131 181° South 291 335 9,000 -660 Descending New York Center
06:13AM 40.1761 -75.4192 184° South 291 335 8,500 -600 Descending New York Center
06:14AM 40.0969 -75.4219 182° South 275 316 7,900 -600 Descending New York Center
06:15AM 40.0381 -75.4314 187° South 251 289 7,400 -600 Descending New York Center
06:16AM 39.9819 -75.4819 215° Southwest 231 266 6,700 -720 Descending New York Center
06:17AM 39.9464 -75.5392 231° Southwest 226 260 6,000 -720 Descending New York Center
06:18AM 39.8958 -75.6006 223° Southwest 226 260 5,300 -900 Descending New York Center
06:19AM 39.8481 -75.5972 177° South 199 229 4,200 -1,140 Descending New York Center
06:19AM 39.8167 -75.5833 161° South 189 217 3,700 -780 Descending Philadelphia TRACON
06:20AM 39.8167 -75.5167 90° East 165 190 3,200 -360 Descending Philadelphia TRACON
06:21AM 39.8167 -75.4667 90° East 146 168 3,100 -480 Descending Philadelphia TRACON
06:22AM 39.8333 -75.4167 67° East 140 161 2,300 -720 Descending Philadelphia TRACON
06:23AM 39.8500 -75.3667 67° East 118 136 1,700 -600 Descending Philadelphia TRACON